King Salmon Airport (AKN/PAKN)




Flight Aircraft Arriving
GRZ5370 SF34
PACD - Cold Bay Airport
United StatesAlaska Cold Bay, Alaska
GRZ5376 SF34
PADL - Dillingham Airport
United StatesAlaska Dillingham, Alaska
GRZ5378 SF34
PABE - Bethel Airport
United StatesAlaska Bethel, Alaska
GRZ5380 SF34
PANI - Aniak Airport
United StatesAlaska Aniak, Alaska
Flight Aircraft Departing
GRZ5371 SF34
PACD - Cold Bay Airport
United StatesAlaska Cold Bay, Alaska
GRZ5377 SF34
PADL - Dillingham Airport
United StatesAlaska Dillingham, Alaska
GRZ5379 SF34
PABE - Bethel Airport
United StatesAlaska Bethel, Alaska
GRZ5381 SF34
PANI - Aniak Airport
United StatesAlaska Aniak, Alaska
Airport Information
Location: King Salmon, US
Coordinates: 58.6765 / -156.649
Elevation:
Time Offset:
Local Time:
UTC Time:
Jet A Price: $1.2/lbs

Current Weather
METAR: PAKN 261454Z AUTO 14007KT 10SM FEW022 SCT027 M03/M04 A2936 RMK AO2 SLP944 T10331044 53005 TSNO
TAF: PAKN 261142Z 2612/2712 15008KT 6SM -SHSN BKN070 TEMPO 2613/2616 3SM -SN BKN015 OVC025 FM262100 VRB06KT P6SM VCSH BKN050

Recent Arrivals
Date Flight Type Depart
11/22/2020 GRZ5371 SF34 Cold Bay Airport (PACD)
Recent Departures

Warning: Invalid argument supplied for foreach() in /var/www/capitollogistics/lib/skins/urban/hub/aptview.php on line 268
Date Flight Type Arrive